Terminal Aerodrome Forecast
Issued by NWS Corpus Christi, TX

Home | Current Version | Previous Version | Text Only | Print | Product List | Glossary On
Versions: 1 2 3 4 5 6 7 8 9 10 11 12 13 14 15 16
000
FTUS44 KCRP 220500
TAFVCT
TAF
KVCT 220521Z 2206/2306 12008KT P6SM SCT025 OVC035
      TEMPO 2206/2207 BKN025
     FM220700 13010KT P6SM VCSH OVC015
     FM221500 14015G20KT 5SM -TSRA BR BKN028CB OVC070 PROB30
      2218/2224 VRB25G40KT 4SM TSRA SCT030CB BKN040
     FM230000 17012KT 5SM -TSRA BR BKN050CB=

USA.gov is the U.S. government's official web portal to all federal, state and local government web resources and services.